sensor_id;sensor_type;location;lat;lon;timestamp;pressure;altitude;pressure_sealevel;temperature;humidity
5703;BME280;2876;51.738;10.050;2023-06-14T00:04:31;99332.38;;;16.40;57.83
5703;BME280;2876;51.738;10.050;2023-06-14T00:10:37;99337.22;;;16.15;59.57
5703;BME280;2876;51.738;10.050;2023-06-14T00:16:41;99336.28;;;16.09;59.95
5703;BME280;2876;51.738;10.050;2023-06-14T00:22:44;99327.56;;;15.95;59.59
5703;BME280;2876;51.738;10.050;2023-06-14T00:28:47;99322.97;;;15.84;60.58
5703;BME280;2876;51.738;10.050;2023-06-14T00:34:49;99323.19;;;15.71;61.21
5703;BME280;2876;51.738;10.050;2023-06-14T00:40:51;99322.91;;;15.49;62.51
5703;BME280;2876;51.738;10.050;2023-06-14T00:46:53;99332.66;;;15.20;63.81
5703;BME280;2876;51.738;10.050;2023-06-14T00:52:56;99319.38;;;14.88;65.67
5703;BME280;2876;51.738;10.050;2023-06-14T00:58:58;99322.66;;;14.60;66.55
5703;BME280;2876;51.738;10.050;2023-06-14T01:05:03;99331.97;;;14.39;66.96
5703;BME280;2876;51.738;10.050;2023-06-14T01:24:15;99340.28;;;14.19;67.91
5703;BME280;2876;51.738;10.050;2023-06-14T01:30:17;99331.88;;;13.84;69.49
5703;BME280;2876;51.738;10.050;2023-06-14T01:36:20;99329.59;;;13.88;69.06
5703;BME280;2876;51.738;10.050;2023-06-14T01:42:23;99339.13;;;13.90;69.06
5703;BME280;2876;51.738;10.050;2023-06-14T01:48:26;99335.63;;;13.83;69.25
5703;BME280;2876;51.738;10.050;2023-06-14T01:54:28;99335.25;;;13.80;69.74
5703;BME280;2876;51.738;10.050;2023-06-14T02:00:30;99333.31;;;13.62;70.16
5703;BME280;2876;51.738;10.050;2023-06-14T02:06:32;99334.03;;;13.51;70.65
5703;BME280;2876;51.738;10.050;2023-06-14T02:12:36;99331.72;;;13.54;70.64
5703;BME280;2876;51.738;10.050;2023-06-14T02:18:38;99327.81;;;13.50;70.62
5703;BME280;2876;51.738;10.050;2023-06-14T02:24:40;99340.81;;;13.28;71.36
5703;BME280;2876;51.738;10.050;2023-06-14T02:30:42;99345.03;;;13.11;72.52
5703;BME280;2876;51.738;10.050;2023-06-14T02:36:44;99344.03;;;13.05;73.01
5703;BME280;2876;51.738;10.050;2023-06-14T02:42:46;99343.03;;;13.00;73.30
5703;BME280;2876;51.738;10.050;2023-06-14T02:48:48;99346.66;;;13.12;73.00
5703;BME280;2876;51.738;10.050;2023-06-14T02:54:51;99353.09;;;13.11;72.85
5703;BME280;2876;51.738;10.050;2023-06-14T03:00:52;99354.69;;;13.32;73.03
5703;BME280;2876;51.738;10.050;2023-06-14T03:06:55;99359.75;;;13.08;73.12
5703;BME280;2876;51.738;10.050;2023-06-14T03:12:58;99366.22;;;13.01;74.15
5703;BME280;2876;51.738;10.050;2023-06-14T03:19:00;99366.84;;;12.96;74.18
5703;BME280;2876;51.738;10.050;2023-06-14T03:25:02;99377.03;;;12.87;74.49
5703;BME280;2876;51.738;10.050;2023-06-14T03:31:06;99393.91;;;13.08;74.73
5703;BME280;2876;51.738;10.050;2023-06-14T03:37:08;99395.19;;;13.05;74.25
5703;BME280;2876;51.738;10.050;2023-06-14T03:43:10;99395.38;;;13.10;74.50
5703;BME280;2876;51.738;10.050;2023-06-14T03:49:13;99399.38;;;12.94;75.26
5703;BME280;2876;51.738;10.050;2023-06-14T03:55:15;99412.63;;;12.96;75.37
5703;BME280;2876;51.738;10.050;2023-06-14T04:01:21;99412.22;;;12.99;75.35
5703;BME280;2876;51.738;10.050;2023-06-14T04:07:27;99420.94;;;12.88;76.09
5703;BME280;2876;51.738;10.050;2023-06-14T04:13:30;99417.59;;;12.92;76.73
5703;BME280;2876;51.738;10.050;2023-06-14T04:19:32;99417.50;;;13.19;76.98
5703;BME280;2876;51.738;10.050;2023-06-14T04:25:34;99427.00;;;13.66;75.28
5703;BME280;2876;51.738;10.050;2023-06-14T04:31:36;99430.16;;;13.88;74.56
5703;BME280;2876;51.738;10.050;2023-06-14T04:37:41;99446.16;;;14.15;74.30
5703;BME280;2876;51.738;10.050;2023-06-14T04:43:45;99444.28;;;14.40;73.30
5703;BME280;2876;51.738;10.050;2023-06-14T04:49:50;99458.50;;;14.54;72.83
5703;BME280;2876;51.738;10.050;2023-06-14T04:56:18;99463.31;;;14.70;71.22
5703;BME280;2876;51.738;10.050;2023-06-14T05:02:22;99467.53;;;14.85;70.67
5703;BME280;2876;51.738;10.050;2023-06-14T05:08:25;99466.88;;;15.08;69.90
5703;BME280;2876;51.738;10.050;2023-06-14T05:14:27;99477.00;;;15.31;67.57
5703;BME280;2876;51.738;10.050;2023-06-14T05:20:29;99469.97;;;15.60;66.92
5703;BME280;2876;51.738;10.050;2023-06-14T05:26:31;99472.53;;;15.73;67.63
5703;BME280;2876;51.738;10.050;2023-06-14T05:32:34;99473.09;;;16.05;67.95
5703;BME280;2876;51.738;10.050;2023-06-14T05:38:36;99478.69;;;16.34;66.92
5703;BME280;2876;51.738;10.050;2023-06-14T05:44:38;99477.44;;;16.83;65.20
5703;BME280;2876;51.738;10.050;2023-06-14T05:50:40;99482.59;;;16.96;64.50
5703;BME280;2876;51.738;10.050;2023-06-14T05:56:42;99484.09;;;17.16;65.30
5703;BME280;2876;51.738;10.050;2023-06-14T06:02:45;99495.56;;;17.58;62.00
5703;BME280;2876;51.738;10.050;2023-06-14T06:08:47;99500.00;;;18.05;60.74
5703;BME280;2876;51.738;10.050;2023-06-14T06:14:50;99495.16;;;18.23;59.91
5703;BME280;2876;51.738;10.050;2023-06-14T06:20:52;99503.72;;;18.66;59.22
5703;BME280;2876;51.738;10.050;2023-06-14T06:26:54;99500.19;;;18.82;58.69
5703;BME280;2876;51.738;10.050;2023-06-14T06:32:56;99496.72;;;18.87;56.91
5703;BME280;2876;51.738;10.050;2023-06-14T06:38:58;99498.94;;;19.29;55.62
5703;BME280;2876;51.738;10.050;2023-06-14T06:45:00;99502.97;;;19.48;55.41
5703;BME280;2876;51.738;10.050;2023-06-14T06:51:02;99508.38;;;19.65;54.11
5703;BME280;2876;51.738;10.050;2023-06-14T06:57:05;99514.00;;;19.80;54.38
5703;BME280;2876;51.738;10.050;2023-06-14T07:03:07;99517.31;;;20.09;52.00
5703;BME280;2876;51.738;10.050;2023-06-14T07:09:13;99520.22;;;20.57;52.19
5703;BME280;2876;51.738;10.050;2023-06-14T07:15:16;99521.16;;;20.72;51.34
5703;BME280;2876;51.738;10.050;2023-06-14T07:21:19;99528.22;;;20.41;51.31
5703;BME280;2876;51.738;10.050;2023-06-14T07:27:21;99535.56;;;21.05;51.72
5703;BME280;2876;51.738;10.050;2023-06-14T07:33:23;99547.09;;;21.65;49.58
5703;BME280;2876;51.738;10.050;2023-06-14T07:39:25;99541.56;;;22.48;48.78
5703;BME280;2876;51.738;10.050;2023-06-14T07:45:27;99535.50;;;22.15;48.87
5703;BME280;2876;51.738;10.050;2023-06-14T07:51:29;99537.97;;;22.12;47.64
5703;BME280;2876;51.738;10.050;2023-06-14T07:57:31;99532.28;;;23.00;47.16
5703;BME280;2876;51.738;10.050;2023-06-14T08:03:33;99544.84;;;22.40;45.09
5703;BME280;2876;51.738;10.050;2023-06-14T08:09:36;99534.38;;;22.11;46.19
5703;BME280;2876;51.738;10.050;2023-06-14T08:15:42;99532.53;;;22.27;46.23
5703;BME280;2876;51.738;10.050;2023-06-14T08:21:44;99525.25;;;23.69;45.28
5703;BME280;2876;51.738;10.050;2023-06-14T08:27:46;99542.38;;;24.34;41.99
5703;BME280;2876;51.738;10.050;2023-06-14T08:33:48;99538.28;;;23.02;41.82
5703;BME280;2876;51.738;10.050;2023-06-14T08:39:50;99535.56;;;22.97;44.56
5703;BME280;2876;51.738;10.050;2023-06-14T08:46:00;99524.44;;;23.58;41.47
5703;BME280;2876;51.738;10.050;2023-06-14T08:52:05;99524.69;;;23.72;41.84
5703;BME280;2876;51.738;10.050;2023-06-14T08:58:10;99536.50;;;24.12;41.48
5703;BME280;2876;51.738;10.050;2023-06-14T09:04:16;99539.59;;;24.00;42.09
5703;BME280;2876;51.738;10.050;2023-06-14T09:10:18;99549.44;;;24.50;41.44
5703;BME280;2876;51.738;10.050;2023-06-14T09:16:22;99542.84;;;24.12;39.16
5703;BME280;2876;51.738;10.050;2023-06-14T09:22:24;99536.88;;;23.30;41.89
5703;BME280;2876;51.738;10.050;2023-06-14T09:28:27;99540.22;;;23.87;41.91
5703;BME280;2876;51.738;10.050;2023-06-14T09:34:29;99542.34;;;23.35;41.70
5703;BME280;2876;51.738;10.050;2023-06-14T09:40:34;99542.88;;;24.02;40.70
5703;BME280;2876;51.738;10.050;2023-06-14T09:46:38;99535.22;;;24.77;40.09
5703;BME280;2876;51.738;10.050;2023-06-14T09:52:43;99542.69;;;24.72;40.18
5703;BME280;2876;51.738;10.050;2023-06-14T09:58:46;99534.25;;;24.92;39.30
5703;BME280;2876;51.738;10.050;2023-06-14T10:05:09;99543.69;;;25.39;37.00
5703;BME280;2876;51.738;10.050;2023-06-14T10:11:13;99545.09;;;25.37;37.17
5703;BME280;2876;51.738;10.050;2023-06-14T10:17:31;99541.34;;;24.98;37.73
5703;BME280;2876;51.738;10.050;2023-06-14T10:23:40;99526.75;;;25.03;38.22
5703;BME280;2876;51.738;10.050;2023-06-14T10:36:30;99527.84;;;25.55;34.94
5703;BME280;2876;51.738;10.050;2023-06-14T10:42:35;99524.13;;;25.22;36.29
5703;BME280;2876;51.738;10.050;2023-06-14T10:48:41;99520.22;;;25.95;35.74
5703;BME280;2876;51.738;10.050;2023-06-14T11:01:03;99517.25;;;26.94;33.33
5703;BME280;2876;51.738;10.050;2023-06-14T11:13:44;99502.94;;;27.80;32.49
5703;BME280;2876;51.738;10.050;2023-06-14T11:19:46;99496.19;;;28.67;32.48
5703;BME280;2876;51.738;10.050;2023-06-14T11:25:52;99501.50;;;29.17;29.50
5703;BME280;2876;51.738;10.050;2023-06-14T11:31:54;99494.78;;;29.10;30.23
5703;BME280;2876;51.738;10.050;2023-06-14T11:37:56;99503.72;;;28.53;31.33
5703;BME280;2876;51.738;10.050;2023-06-14T11:44:01;99491.56;;;27.81;33.53
5703;BME280;2876;51.738;10.050;2023-06-14T11:50:07;99486.84;;;26.86;34.28
5703;BME280;2876;51.738;10.050;2023-06-14T11:56:13;99483.91;;;26.49;34.88
5703;BME280;2876;51.738;10.050;2023-06-14T12:02:19;99483.25;;;27.18;34.53
5703;BME280;2876;51.738;10.050;2023-06-14T12:08:33;99488.69;;;26.76;36.23
5703;BME280;2876;51.738;10.050;2023-06-14T12:14:41;99485.56;;;27.38;34.33
5703;BME280;2876;51.738;10.050;2023-06-14T12:20:49;99489.63;;;28.86;32.90
5703;BME280;2876;51.738;10.050;2023-06-14T12:26:52;99489.41;;;29.44;31.81
5703;BME280;2876;51.738;10.050;2023-06-14T12:32:54;99493.31;;;29.03;32.46
5703;BME280;2876;51.738;10.050;2023-06-14T12:38:57;99489.94;;;29.15;32.23
5703;BME280;2876;51.738;10.050;2023-06-14T12:45:00;99495.09;;;28.32;33.29
5703;BME280;2876;51.738;10.050;2023-06-14T12:51:02;99482.09;;;27.60;35.52
5703;BME280;2876;51.738;10.050;2023-06-14T12:57:04;99491.56;;;27.81;34.90
5703;BME280;2876;51.738;10.050;2023-06-14T13:03:06;99484.44;;;26.33;36.86
5703;BME280;2876;51.738;10.050;2023-06-14T13:09:08;99488.75;;;26.20;37.45
5703;BME280;2876;51.738;10.050;2023-06-14T13:15:10;99488.66;;;28.00;35.48
5703;BME280;2876;51.738;10.050;2023-06-14T13:21:12;99476.03;;;30.21;30.94
5703;BME280;2876;51.738;10.050;2023-06-14T13:27:15;99492.28;;;29.30;32.29
5703;BME280;2876;51.738;10.050;2023-06-14T13:33:17;99483.22;;;29.47;31.24
5703;BME280;2876;51.738;10.050;2023-06-14T13:39:19;99474.81;;;29.61;31.09
5703;BME280;2876;51.738;10.050;2023-06-14T13:45:21;99482.34;;;28.22;33.71
5703;BME280;2876;51.738;10.050;2023-06-14T13:51:23;99471.84;;;26.78;35.62
5703;BME280;2876;51.738;10.050;2023-06-14T13:57:25;99470.66;;;25.81;37.48
5703;BME280;2876;51.738;10.050;2023-06-14T14:03:27;99478.34;;;25.79;38.32
5703;BME280;2876;51.738;10.050;2023-06-14T14:09:29;99479.59;;;26.24;38.00
5703;BME280;2876;51.738;10.050;2023-06-14T14:15:32;99467.66;;;25.96;37.60
5703;BME280;2876;51.738;10.050;2023-06-14T14:21:36;99468.06;;;25.47;39.02
5703;BME280;2876;51.738;10.050;2023-06-14T14:27:38;99472.69;;;25.27;39.95
5703;BME280;2876;51.738;10.050;2023-06-14T14:33:41;99472.88;;;27.65;37.62
5703;BME280;2876;51.738;10.050;2023-06-14T14:39:45;99478.38;;;28.82;34.16
5703;BME280;2876;51.738;10.050;2023-06-14T14:45:47;99472.69;;;28.56;32.95
5703;BME280;2876;51.738;10.050;2023-06-14T14:51:49;99475.13;;;29.02;33.08
5703;BME280;2876;51.738;10.050;2023-06-14T14:57:51;99472.03;;;27.92;35.34
5703;BME280;2876;51.738;10.050;2023-06-14T15:03:53;99472.31;;;28.04;34.43
5703;BME280;2876;51.738;10.050;2023-06-14T15:10:01;99474.44;;;27.16;36.47
5703;BME280;2876;51.738;10.050;2023-06-14T15:16:03;99470.19;;;27.10;36.22
5703;BME280;2876;51.738;10.050;2023-06-14T15:22:06;99460.78;;;28.24;34.21
5703;BME280;2876;51.738;10.050;2023-06-14T15:28:08;99459.31;;;28.41;32.18
5703;BME280;2876;51.738;10.050;2023-06-14T15:34:11;99463.84;;;28.68;32.93
5703;BME280;2876;51.738;10.050;2023-06-14T15:40:13;99463.72;;;27.42;34.97
5703;BME280;2876;51.738;10.050;2023-06-14T15:46:16;99465.03;;;26.24;37.39
5703;BME280;2876;51.738;10.050;2023-06-14T15:52:18;99469.72;;;25.67;38.34
5703;BME280;2876;51.738;10.050;2023-06-14T15:58:20;99462.28;;;25.24;39.48
5703;BME280;2876;51.738;10.050;2023-06-14T16:04:22;99463.63;;;27.05;36.55
5703;BME280;2876;51.738;10.050;2023-06-14T16:10:24;99459.09;;;27.65;35.17
5703;BME280;2876;51.738;10.050;2023-06-14T16:16:28;99445.34;;;28.01;35.90
5703;BME280;2876;51.738;10.050;2023-06-14T16:22:29;99448.88;;;28.38;33.72
5703;BME280;2876;51.738;10.050;2023-06-14T16:28:32;99458.75;;;28.52;32.50
5703;BME280;2876;51.738;10.050;2023-06-14T16:34:34;99466.91;;;30.12;31.23
5703;BME280;2876;51.738;10.050;2023-06-14T16:40:37;99472.75;;;32.52;27.17
5703;BME280;2876;51.738;10.050;2023-06-14T16:46:39;99479.00;;;35.20;24.03
5703;BME280;2876;51.738;10.050;2023-06-14T16:52:41;99478.84;;;34.69;24.55
5703;BME280;2876;51.738;10.050;2023-06-14T16:58:43;99475.03;;;34.33;24.51
5703;BME280;2876;51.738;10.050;2023-06-14T17:04:45;99466.72;;;33.93;25.26
5703;BME280;2876;51.738;10.050;2023-06-14T17:10:47;99484.41;;;35.13;25.11
5703;BME280;2876;51.738;10.050;2023-06-14T17:16:49;99491.03;;;35.91;23.17
5703;BME280;2876;51.738;10.050;2023-06-14T17:22:51;99477.34;;;35.51;24.13
5703;BME280;2876;51.738;10.050;2023-06-14T17:28:55;99493.66;;;35.49;24.24
5703;BME280;2876;51.738;10.050;2023-06-14T17:34:56;99485.03;;;34.35;24.82
5703;BME280;2876;51.738;10.050;2023-06-14T17:40:58;99482.28;;;32.96;26.80
5703;BME280;2876;51.738;10.050;2023-06-14T17:47:02;99493.94;;;32.90;26.75
5703;BME280;2876;51.738;10.050;2023-06-14T17:53:04;99486.94;;;30.35;30.43
5703;BME280;2876;51.738;10.050;2023-06-14T17:59:10;99486.16;;;28.49;31.98
5703;BME280;2876;51.738;10.050;2023-06-14T18:05:12;99480.13;;;27.61;33.31
5703;BME280;2876;51.738;10.050;2023-06-14T18:11:14;99488.78;;;26.52;35.89
5703;BME280;2876;51.738;10.050;2023-06-14T18:17:17;99488.78;;;25.39;38.48
5703;BME280;2876;51.738;10.050;2023-06-14T18:23:19;99486.56;;;24.20;41.99
5703;BME280;2876;51.738;10.050;2023-06-14T18:29:21;99483.97;;;23.45;42.67
5703;BME280;2876;51.738;10.050;2023-06-14T18:35:23;99477.81;;;23.03;44.30
5703;BME280;2876;51.738;10.050;2023-06-14T18:41:25;99486.34;;;22.25;47.21
5703;BME280;2876;51.738;10.050;2023-06-14T18:47:29;99480.44;;;21.50;50.47
5703;BME280;2876;51.738;10.050;2023-06-14T18:53:31;99484.63;;;21.21;52.12
5703;BME280;2876;51.738;10.050;2023-06-14T18:59:33;99485.03;;;20.92;52.44
5703;BME280;2876;51.738;10.050;2023-06-14T19:05:35;99491.69;;;20.69;53.48
5703;BME280;2876;51.738;10.050;2023-06-14T19:11:37;99488.09;;;20.32;54.13
5703;BME280;2876;51.738;10.050;2023-06-14T19:17:57;99489.84;;;20.16;54.91
5703;BME280;2876;51.738;10.050;2023-06-14T19:24:00;99492.28;;;19.85;55.08
5703;BME280;2876;51.738;10.050;2023-06-14T19:30:03;99496.00;;;19.57;55.47
5703;BME280;2876;51.738;10.050;2023-06-14T19:36:06;99506.84;;;19.30;56.19
5703;BME280;2876;51.738;10.050;2023-06-14T19:42:08;99515.06;;;19.13;56.65
5703;BME280;2876;51.738;10.050;2023-06-14T19:48:12;99521.00;;;19.10;58.56
5703;BME280;2876;51.738;10.050;2023-06-14T19:54:22;99522.25;;;18.52;58.49
5703;BME280;2876;51.738;10.050;2023-06-14T20:00:24;99531.38;;;18.29;59.71
5703;BME280;2876;51.738;10.050;2023-06-14T20:06:27;99544.00;;;18.07;61.17
5703;BME280;2876;51.738;10.050;2023-06-14T20:12:29;99543.34;;;17.99;62.03
5703;BME280;2876;51.738;10.050;2023-06-14T20:18:32;99550.16;;;17.73;63.41
5703;BME280;2876;51.738;10.050;2023-06-14T20:24:34;99561.38;;;17.54;64.09
5703;BME280;2876;51.738;10.050;2023-06-14T20:30:36;99553.81;;;17.56;64.47
5703;BME280;2876;51.738;10.050;2023-06-14T20:36:38;99537.91;;;17.47;65.38
5703;BME280;2876;51.738;10.050;2023-06-14T20:42:40;99550.81;;;17.40;66.39
5703;BME280;2876;51.738;10.050;2023-06-14T20:48:43;99549.41;;;17.26;67.05
5703;BME280;2876;51.738;10.050;2023-06-14T20:54:45;99553.53;;;17.17;67.24
5703;BME280;2876;51.738;10.050;2023-06-14T21:00:47;99546.94;;;17.13;67.13
5703;BME280;2876;51.738;10.050;2023-06-14T21:06:51;99554.81;;;16.79;67.97
5703;BME280;2876;51.738;10.050;2023-06-14T21:12:54;99559.16;;;16.80;68.28
5703;BME280;2876;51.738;10.050;2023-06-14T21:18:59;99561.50;;;16.65;69.21
5703;BME280;2876;51.738;10.050;2023-06-14T21:25:01;99556.97;;;16.35;68.88
5703;BME280;2876;51.738;10.050;2023-06-14T21:31:08;99555.41;;;16.39;69.11
5703;BME280;2876;51.738;10.050;2023-06-14T21:37:11;99544.66;;;16.09;70.34
5703;BME280;2876;51.738;10.050;2023-06-14T21:43:13;99553.09;;;16.01;71.17
5703;BME280;2876;51.738;10.050;2023-06-14T21:49:14;99558.44;;;15.89;71.57
5703;BME280;2876;51.738;10.050;2023-06-14T21:55:16;99549.75;;;15.51;73.33
5703;BME280;2876;51.738;10.050;2023-06-14T22:01:21;99556.88;;;15.45;73.86
5703;BME280;2876;51.738;10.050;2023-06-14T22:07:24;99552.06;;;15.29;74.50
5703;BME280;2876;51.738;10.050;2023-06-14T22:13:26;99554.84;;;15.22;74.90
5703;BME280;2876;51.738;10.050;2023-06-14T22:19:30;99552.84;;;15.17;75.09
5703;BME280;2876;51.738;10.050;2023-06-14T22:25:32;99558.53;;;15.09;75.35
5703;BME280;2876;51.738;10.050;2023-06-14T22:31:34;99564.50;;;15.11;75.34
5703;BME280;2876;51.738;10.050;2023-06-14T22:37:39;99569.25;;;15.16;75.12
5703;BME280;2876;51.738;10.050;2023-06-14T22:43:42;99569.28;;;14.91;75.77
5703;BME280;2876;51.738;10.050;2023-06-14T22:49:44;99565.41;;;14.80;76.39
5703;BME280;2876;51.738;10.050;2023-06-14T22:56:10;99564.88;;;14.71;76.64
5703;BME280;2876;51.738;10.050;2023-06-14T23:02:13;99565.91;;;14.70;77.13
5703;BME280;2876;51.738;10.050;2023-06-14T23:08:14;99556.13;;;14.76;77.02
5703;BME280;2876;51.738;10.050;2023-06-14T23:14:17;99570.66;;;14.75;77.02
5703;BME280;2876;51.738;10.050;2023-06-14T23:20:19;99574.53;;;14.61;76.84
5703;BME280;2876;51.738;10.050;2023-06-14T23:26:21;99570.19;;;14.60;77.61
5703;BME280;2876;51.738;10.050;2023-06-14T23:32:26;99574.59;;;14.47;78.21
5703;BME280;2876;51.738;10.050;2023-06-14T23:38:31;99562.53;;;14.18;79.98
5703;BME280;2876;51.738;10.050;2023-06-14T23:44:33;99565.28;;;13.74;82.35
5703;BME280;2876;51.738;10.050;2023-06-14T23:50:38;99561.41;;;13.56;83.05
5703;BME280;2876;51.738;10.050;2023-06-14T23:56:40;99565.94;;;13.62;82.73
